createdAt,value
2019-06-10T00:02:03.461Z,4.70
2019-06-10T00:04:30.839Z,9.50
2019-06-10T00:07:00.992Z,7.63
2019-06-10T00:09:28.519Z,2.70
2019-06-10T00:11:56.374Z,2.67
2019-06-10T00:14:23.890Z,5.20
2019-06-10T00:16:51.972Z,5.40
2019-06-10T00:19:21.692Z,5.97
2019-06-10T00:21:50.962Z,2.83
2019-06-10T00:24:20.821Z,3.67
2019-06-10T00:26:47.898Z,2.73
2019-06-10T00:29:15.417Z,5.13
2019-06-10T00:31:43.289Z,4.47
2019-06-10T00:34:12.351Z,4.93
2019-06-10T00:36:41.421Z,6.80
2019-06-10T00:39:13.141Z,7.27
2019-06-10T00:41:38.857Z,8.90
2019-06-10T00:44:06.977Z,3.00
2019-06-10T00:46:35.740Z,7.03
2019-06-10T00:49:05.650Z,3.30
2019-06-10T00:51:32.637Z,5.07
2019-06-10T00:54:03.325Z,2.57
2019-06-10T00:56:30.851Z,5.87
2019-06-10T00:59:01.023Z,6.07
2019-06-10T01:01:31.292Z,9.73
2019-06-10T01:03:58.435Z,6.87
2019-06-10T01:06:25.953Z,4.10
2019-06-10T01:08:53.439Z,11.23
2019-06-10T01:11:26.694Z,11.83
2019-06-10T01:13:50.962Z,4.90
2019-06-10T01:16:21.481Z,5.60
2019-06-10T01:18:51.079Z,3.23
2019-06-10T01:21:17.937Z,5.17
2019-06-10T01:23:45.461Z,5.20
2019-06-10T01:26:16.261Z,5.20
2019-06-10T01:28:43.059Z,3.57
2019-06-10T01:31:16.801Z,2.60
2019-06-10T01:33:41.096Z,4.30
2019-06-10T01:36:12.568Z,5.97
2019-06-10T01:38:40.826Z,4.27
2019-06-10T01:41:10.675Z,5.80
2019-06-10T01:43:37.631Z,10.40
2019-06-10T01:46:05.142Z,7.97
2019-06-10T01:48:44.333Z,3.87
2019-06-10T01:51:02.389Z,7.10
2019-06-10T01:53:31.394Z,8.77
2019-06-10T01:56:00.979Z,4.27
2019-06-10T01:58:28.715Z,9.13
2019-06-10T02:01:13.424Z,4.50
2019-06-10T02:03:41.363Z,5.77
2019-06-10T02:06:08.842Z,4.83
2019-06-10T02:08:36.483Z,6.87
2019-06-10T02:11:04.017Z,3.93
2019-06-10T02:13:32.846Z,3.70
2019-06-10T02:16:01.954Z,3.73
2019-06-10T02:18:31.797Z,5.70
2019-06-10T02:21:00.959Z,6.20
2019-06-10T02:23:31.062Z,6.03
2019-06-10T02:26:01.058Z,4.20
2019-06-10T02:28:27.897Z,7.60
2019-06-10T02:30:56.114Z,4.10
2019-06-10T02:33:30.675Z,4.70
2019-06-10T02:35:54.104Z,8.63
2019-06-10T02:38:32.332Z,6.10
2019-06-10T02:40:53.919Z,11.43
2019-06-10T02:43:31.708Z,6.17
2019-06-10T02:45:53.180Z,4.67
2019-06-10T02:48:27.074Z,4.40
2019-06-10T02:51:18.201Z,9.30
2019-06-10T02:53:45.710Z,3.93
2019-06-10T02:56:14.776Z,4.03
2019-06-10T02:58:44.876Z,6.60
2019-06-10T03:01:16.322Z,6.43
2019-06-10T03:03:45.898Z,16.27
2019-06-10T03:06:14.382Z,5.13
2019-06-10T03:08:43.700Z,6.53
2019-06-10T03:11:13.725Z,2.80
2019-06-10T03:13:42.500Z,7.57
2019-06-10T03:16:32.979Z,9.50
2019-06-10T03:19:02.919Z,7.90
2019-06-10T03:21:32.290Z,8.00
2019-06-10T03:24:02.492Z,11.23
2019-06-10T03:26:32.126Z,8.00
2019-06-10T03:28:59.531Z,8.43
2019-06-10T03:31:33.946Z,12.33
2019-06-10T03:33:56.637Z,6.17
2019-06-10T03:36:27.004Z,8.30
2019-06-10T03:38:55.176Z,9.57
2019-06-10T03:41:23.733Z,10.10
2019-06-10T03:43:53.132Z,8.10
2019-06-10T03:46:23.750Z,6.27
2019-06-10T03:48:52.485Z,5.57
2019-06-10T03:51:19.527Z,5.33
2019-06-10T03:53:47.101Z,6.33
2019-06-10T03:56:15.383Z,6.20
2019-06-10T03:58:43.362Z,8.60
2019-06-10T04:01:12.304Z,4.83
2019-06-10T04:03:42.452Z,7.70
2019-06-10T04:06:09.307Z,6.40
2019-06-10T04:08:37.210Z,4.43
2019-06-10T04:11:05.016Z,5.53
2019-06-10T04:13:33.884Z,4.47
2019-06-10T04:16:02.516Z,9.70
2019-06-10T04:18:32.751Z,6.17
2019-06-10T04:21:02.054Z,3.93
2019-06-10T04:23:33.170Z,5.73
2019-06-10T04:26:02.311Z,5.60
2019-06-10T04:28:29.564Z,3.80
2019-06-10T04:30:57.363Z,5.43
2019-06-10T04:33:26.195Z,4.27
2019-06-10T04:35:54.198Z,8.90
2019-06-10T04:38:23.402Z,6.53
2019-06-10T04:40:52.641Z,12.30
2019-06-10T04:43:20.493Z,16.63
2019-06-10T04:45:52.613Z,10.70
2019-06-10T04:48:20.567Z,7.87
2019-06-10T04:50:49.260Z,6.60
2019-06-10T04:53:16.979Z,11.77
2019-06-10T04:55:44.790Z,8.20
2019-06-10T04:58:13.075Z,8.20
2019-06-10T05:00:42.897Z,11.00
2019-06-10T05:03:12.125Z,11.80
2019-06-10T05:05:40.228Z,7.77
2019-06-10T05:08:07.775Z,14.93
2019-06-10T05:10:35.250Z,10.23
2019-06-10T05:13:03.181Z,13.23
2019-06-10T05:15:32.347Z,11.50
2019-06-10T05:18:00.077Z,12.10
2019-06-10T05:20:44.486Z,14.30
2019-06-10T05:22:57.258Z,18.67
2019-06-10T05:25:25.727Z,15.50
2019-06-10T05:27:54.485Z,17.60
2019-06-10T05:30:22.808Z,15.93
2019-06-10T05:32:52.393Z,12.73
2019-06-10T05:35:23.264Z,17.33
2019-06-10T05:37:52.635Z,13.27
2019-06-10T05:40:22.169Z,17.43
2019-06-10T05:42:49.501Z,16.47
2019-06-10T05:45:17.054Z,13.27
2019-06-10T05:47:44.921Z,13.77
2019-06-10T05:50:13.258Z,11.70
2019-06-10T05:52:42.756Z,12.40
2019-06-10T05:55:12.160Z,18.93
2019-06-10T05:57:39.650Z,14.33
2019-06-10T06:00:13.963Z,11.80
2019-06-10T06:02:38.212Z,8.90
2019-06-10T06:05:06.253Z,8.53
2019-06-10T06:07:35.529Z,7.50
2019-06-10T06:10:05.535Z,5.50
2019-06-10T06:12:35.345Z,13.53
2019-06-10T06:15:02.781Z,7.40
2019-06-10T06:17:32.755Z,7.00
2019-06-10T06:20:02.571Z,6.83
2019-06-10T06:22:29.870Z,5.60
2019-06-10T06:24:57.725Z,4.20
2019-06-10T06:27:25.259Z,8.43
2019-06-10T06:29:52.647Z,5.17
2019-06-10T06:32:20.212Z,4.43
2019-06-10T06:34:47.639Z,3.63
2019-06-10T06:37:15.170Z,4.40
2019-06-10T06:39:42.979Z,4.77
2019-06-10T06:42:12.675Z,4.50
2019-06-10T06:44:43.323Z,3.30
2019-06-10T06:47:13.061Z,9.03
2019-06-10T06:49:42.375Z,3.40
2019-06-10T06:52:09.759Z,3.17
2019-06-10T06:54:38.144Z,7.00
2019-06-10T06:57:07.931Z,4.50
2019-06-10T06:59:37.387Z,4.23
2019-06-10T07:02:05.479Z,8.70
2019-06-10T07:04:34.296Z,4.97
2019-06-10T07:07:02.704Z,4.43
2019-06-10T07:09:35.627Z,2.87
2019-06-10T07:12:05.021Z,4.10
2019-06-10T07:14:36.828Z,5.17
2019-06-10T07:17:03.904Z,4.20
2019-06-10T07:19:34.476Z,5.43
2019-06-10T07:22:09.708Z,4.40
2019-06-10T07:24:32.690Z,6.30
2019-06-10T07:27:02.577Z,3.20
2019-06-10T07:29:29.703Z,5.23
2019-06-10T07:31:57.237Z,10.90
2019-06-10T07:34:24.916Z,6.93
2019-06-10T07:36:52.429Z,7.00
2019-06-10T07:39:22.714Z,4.43
2019-06-10T07:41:52.903Z,5.43
2019-06-10T07:44:22.515Z,5.73
2019-06-10T07:46:49.741Z,5.50
2019-06-10T07:49:17.283Z,3.97
2019-06-10T07:51:46.499Z,4.50
2019-06-10T07:54:14.680Z,5.63
2019-06-10T07:56:48.329Z,8.67
2019-06-10T07:59:12.886Z,5.90
2019-06-10T08:01:48.104Z,4.80
2019-06-10T08:04:12.015Z,2.67
2019-06-10T08:06:39.889Z,3.00
2019-06-10T08:09:07.481Z,6.20
2019-06-10T08:11:35.428Z,8.13
2019-06-10T08:14:04.547Z,4.73
2019-06-10T08:16:32.724Z,5.20
2019-06-10T08:19:24.671Z,8.07
2019-06-10T08:21:32.171Z,3.23
2019-06-10T08:23:59.371Z,13.30
2019-06-10T08:26:27.127Z,4.20
2019-06-10T08:28:56.128Z,4.93
2019-06-10T08:31:23.881Z,6.50
2019-06-10T08:33:53.403Z,5.87
2019-06-10T08:36:22.436Z,5.43
2019-06-10T08:38:52.455Z,8.10
2019-06-10T08:41:19.772Z,8.93
2019-06-10T08:43:48.504Z,4.10
2019-06-10T08:46:16.097Z,4.17
2019-06-10T08:48:47.640Z,5.43
2019-06-10T08:51:14.437Z,4.20
2019-06-10T08:53:44.196Z,5.30
2019-06-10T08:56:13.157Z,3.10
2019-06-10T08:58:45.815Z,3.33
2019-06-10T09:01:13.321Z,4.87
2019-06-10T09:03:43.565Z,3.60
2019-06-10T09:06:10.141Z,3.27
2019-06-10T09:08:38.924Z,4.50
2019-06-10T09:11:07.489Z,3.20
2019-06-10T09:13:34.976Z,3.83
2019-06-10T09:16:12.863Z,6.50
2019-06-10T09:18:33.701Z,4.20
2019-06-10T09:21:02.307Z,5.60
2019-06-10T09:23:32.883Z,3.90
2019-06-10T09:25:59.803Z,6.63
2019-06-10T09:28:27.375Z,3.73
2019-06-10T09:30:59.284Z,4.10
2019-06-10T09:33:25.257Z,10.33
2019-06-10T09:35:54.916Z,7.37
2019-06-10T09:38:23.651Z,6.47
2019-06-10T09:41:00.421Z,4.57
2019-06-10T09:43:22.622Z,12.30
2019-06-10T09:45:55.429Z,5.70
2019-06-10T09:48:22.944Z,12.20
2019-06-10T09:50:57.922Z,5.33
2019-06-10T09:53:33.857Z,4.00
2019-06-10T09:55:54.918Z,5.13
2019-06-10T09:58:22.972Z,6.90
2019-06-10T10:00:57.244Z,10.70
2019-06-10T10:03:23.907Z,3.40
2019-06-10T10:05:59.450Z,8.03
2019-06-10T10:08:23.040Z,7.27
2019-06-10T10:10:58.227Z,5.43
2019-06-10T10:13:22.526Z,5.10
2019-06-10T10:15:53.829Z,3.70
2019-06-10T10:18:23.548Z,6.20
2019-06-10T10:20:53.165Z,3.27
2019-06-10T10:23:22.679Z,4.10
2019-06-10T10:25:54.814Z,5.90
2019-06-10T10:28:22.935Z,3.57
2019-06-10T10:30:52.576Z,4.47
2019-06-10T10:33:19.586Z,3.43
2019-06-10T10:35:49.208Z,3.17
2019-06-10T10:38:17.512Z,2.70
2019-06-10T10:40:47.450Z,2.70
2019-06-10T10:43:25.441Z,3.77
2019-06-10T10:45:47.425Z,3.97
2019-06-10T10:48:14.070Z,4.53
2019-06-10T10:50:43.529Z,2.90
2019-06-10T10:53:12.869Z,5.10
2019-06-10T10:55:42.504Z,8.17
2019-06-10T10:58:12.897Z,2.90
2019-06-10T11:00:45.481Z,3.43
2019-06-10T11:03:13.495Z,5.47
2019-06-10T11:05:44.731Z,5.33
2019-06-10T11:08:13.586Z,4.13
2019-06-10T11:10:43.887Z,3.33
2019-06-10T11:13:10.764Z,3.57
2019-06-10T11:15:38.314Z,4.93
2019-06-10T11:18:08.151Z,6.70
2019-06-10T11:20:35.715Z,4.83
2019-06-10T11:23:03.665Z,2.90
2019-06-10T11:25:33.219Z,7.30
2019-06-10T11:28:04.053Z,4.17
2019-06-10T11:30:32.407Z,3.70
2019-06-10T11:33:03.202Z,8.70
2019-06-10T11:35:30.345Z,3.27
2019-06-10T11:37:58.200Z,3.30
2019-06-10T11:40:25.731Z,3.20
2019-06-10T11:42:56.505Z,3.13
2019-06-10T11:45:23.760Z,3.83
2019-06-10T11:47:53.906Z,5.40
2019-06-10T11:50:23.208Z,6.43
2019-06-10T11:52:55.425Z,3.60
2019-06-10T11:55:23.623Z,4.70
2019-06-10T11:57:51.017Z,3.87
2019-06-10T12:00:23.065Z,4.07
2019-06-10T12:02:50.951Z,4.00
2019-06-10T12:05:21.146Z,6.63
2019-06-10T12:07:51.045Z,4.50
2019-06-10T12:10:19.177Z,4.37
2019-06-10T12:12:47.257Z,13.33
2019-06-10T12:15:16.999Z,6.40
2019-06-10T12:17:51.174Z,6.13
2019-06-10T12:20:16.244Z,5.20
2019-06-10T12:22:44.079Z,4.57
2019-06-10T12:25:35.658Z,5.40
2019-06-10T12:27:43.360Z,8.60
2019-06-10T12:30:14.411Z,6.90
2019-06-10T12:32:42.636Z,6.20
2019-06-10T12:35:13.498Z,7.60
2019-06-10T12:37:42.610Z,9.70
2019-06-10T12:40:12.796Z,6.40
2019-06-10T12:42:40.306Z,4.87
2019-06-10T12:45:12.607Z,7.77
2019-06-10T12:47:39.439Z,4.87
2019-06-10T12:50:08.627Z,8.07
2019-06-10T12:52:36.409Z,4.77
2019-06-10T12:55:04.972Z,5.97
2019-06-10T12:57:32.625Z,5.37
2019-06-10T13:00:01.208Z,4.87
2019-06-10T13:02:34.424Z,7.10
2019-06-10T13:05:04.736Z,12.17
2019-06-10T13:07:33.606Z,6.87
2019-06-10T13:10:02.966Z,7.03
2019-06-10T13:12:33.232Z,5.20
2019-06-10T13:15:05.074Z,6.03
2019-06-10T13:17:31.543Z,7.03
2019-06-10T13:19:59.230Z,7.87
2019-06-10T13:22:26.871Z,5.13
2019-06-10T13:24:54.429Z,8.53
2019-06-10T13:27:22.755Z,6.70
2019-06-10T13:29:53.037Z,5.00
2019-06-10T13:32:20.607Z,8.80
2019-06-10T13:34:48.090Z,6.30
2019-06-10T13:37:16.258Z,6.60
2019-06-10T13:39:44.291Z,4.80
2019-06-10T13:42:13.638Z,4.23
2019-06-10T13:44:42.767Z,4.50
2019-06-10T13:47:14.625Z,7.77
2019-06-10T13:49:42.822Z,8.33
2019-06-10T13:52:15.950Z,5.03
2019-06-10T13:54:42.013Z,5.00
2019-06-10T13:57:13.622Z,5.00
2019-06-10T13:59:42.767Z,6.07
2019-06-10T14:02:11.622Z,10.43
2019-06-10T14:04:39.301Z,11.93
2019-06-10T14:07:10.406Z,9.30
2019-06-10T14:09:37.153Z,17.27
2019-06-10T14:12:05.978Z,8.77
2019-06-10T14:14:33.553Z,8.33
2019-06-10T14:17:01.325Z,9.17
2019-06-10T14:19:29.887Z,11.60
2019-06-10T14:21:57.474Z,11.13
2019-06-10T14:24:25.301Z,12.17
2019-06-10T14:26:53.230Z,9.17
2019-06-10T14:29:21.481Z,7.47
2019-06-10T14:31:49.451Z,8.30
2019-06-10T14:34:18.724Z,14.40
2019-06-10T14:36:46.471Z,8.63
2019-06-10T14:39:15.914Z,6.97
2019-06-10T14:41:43.763Z,7.93
2019-06-10T14:44:16.038Z,8.20
2019-06-10T14:46:42.476Z,12.60
2019-06-10T14:49:11.513Z,7.13
2019-06-10T14:51:39.777Z,18.17
2019-06-10T14:54:07.296Z,5.30
2019-06-10T14:56:47.184Z,7.27
2019-06-10T14:59:05.399Z,5.60
2019-06-10T15:01:33.151Z,4.87
2019-06-10T15:04:02.909Z,7.03
2019-06-10T15:06:33.722Z,5.90
2019-06-10T15:09:00.247Z,5.97
2019-06-10T15:11:28.350Z,9.73
2019-06-10T15:13:55.852Z,6.13
2019-06-10T15:16:23.933Z,8.20
2019-06-10T15:18:52.558Z,6.87
2019-06-10T15:21:23.006Z,8.97
2019-06-10T15:23:52.187Z,10.47
2019-06-10T15:26:20.326Z,6.60
2019-06-10T15:28:48.763Z,9.10
2019-06-10T15:31:18.298Z,6.53
2019-06-10T15:33:47.045Z,10.73
2019-06-10T15:36:15.263Z,11.90
2019-06-10T15:38:44.011Z,10.10
2019-06-10T15:41:15.062Z,8.67
2019-06-10T15:43:42.358Z,9.00
2019-06-10T15:46:12.509Z,10.60
2019-06-10T15:48:39.410Z,7.97
2019-06-10T15:51:06.905Z,7.50
2019-06-10T15:53:37.327Z,8.90
2019-06-10T15:56:16.775Z,9.47
2019-06-10T15:58:34.217Z,9.50
2019-06-10T16:01:02.804Z,11.80
2019-06-10T16:03:32.926Z,12.40
2019-06-10T16:06:02.894Z,8.30
2019-06-10T16:08:29.658Z,11.30
2019-06-10T16:10:57.797Z,10.00
2019-06-10T16:13:26.005Z,11.13
2019-06-10T16:15:54.010Z,9.47
2019-06-10T16:18:26.055Z,8.23
2019-06-10T16:20:52.722Z,8.27
2019-06-10T16:23:24.695Z,9.10
2019-06-10T16:25:53.116Z,8.27
2019-06-10T16:28:20.767Z,9.47
2019-06-10T16:30:49.867Z,8.37
2019-06-10T16:33:18.608Z,9.43
2019-06-10T16:35:47.259Z,7.90
2019-06-10T16:38:14.911Z,8.37
2019-06-10T16:40:43.204Z,11.67
2019-06-10T16:43:10.954Z,9.17
2019-06-10T16:45:38.961Z,11.30
2019-06-10T16:48:06.863Z,8.57
2019-06-10T16:50:34.501Z,14.07
2019-06-10T16:53:02.981Z,9.03
2019-06-10T16:55:33.278Z,8.60
2019-06-10T16:58:02.804Z,12.40
2019-06-10T17:00:31.496Z,12.03
2019-06-10T17:03:01.046Z,11.63
2019-06-10T17:05:30.410Z,12.37
2019-06-10T17:07:58.232Z,11.27
2019-06-10T17:10:28.214Z,10.00
2019-06-10T17:13:03.349Z,12.20
2019-06-10T17:15:31.129Z,12.33
2019-06-10T17:17:58.949Z,7.60
2019-06-10T17:20:29.363Z,13.50
2019-06-10T17:22:56.241Z,12.83
2019-06-10T17:25:25.413Z,10.70
2019-06-10T17:27:53.834Z,5.97
2019-06-10T17:30:23.400Z,5.70
2019-06-10T17:32:53.217Z,4.30
2019-06-10T17:35:20.524Z,7.87
2019-06-10T17:37:48.161Z,4.30
2019-06-10T17:40:15.639Z,4.30
2019-06-10T17:42:43.103Z,3.50
2019-06-10T17:45:12.849Z,3.60
2019-06-10T17:47:40.661Z,7.17
2019-06-10T17:50:09.738Z,4.93
2019-06-10T17:52:38.872Z,4.43
2019-06-10T17:55:06.611Z,5.37
2019-06-10T17:57:36.169Z,4.20
2019-06-10T18:00:14.184Z,6.67
2019-06-10T18:02:39.388Z,6.83
2019-06-10T18:05:07.779Z,4.00
2019-06-10T18:07:35.883Z,7.43
2019-06-10T18:10:04.655Z,6.40
2019-06-10T18:12:33.940Z,3.87
2019-06-10T18:15:03.558Z,7.50
2019-06-10T18:17:33.557Z,8.30
2019-06-10T18:20:02.844Z,11.30
2019-06-10T18:22:34.110Z,6.43
2019-06-10T18:25:03.071Z,5.13
2019-06-10T18:27:33.623Z,5.77
2019-06-10T18:30:02.307Z,4.27
2019-06-10T18:32:32.387Z,6.80
2019-06-10T18:34:59.901Z,4.80
2019-06-10T18:37:28.178Z,7.30
2019-06-10T18:39:56.609Z,6.47
2019-06-10T18:42:24.532Z,5.37
2019-06-10T18:44:52.283Z,4.00
2019-06-10T18:47:22.336Z,6.53
2019-06-10T18:49:49.484Z,5.47
2019-06-10T18:52:17.014Z,4.40
2019-06-10T18:54:44.533Z,4.10
2019-06-10T18:57:12.013Z,9.33
2019-06-10T18:59:39.910Z,5.87
2019-06-10T19:02:07.672Z,3.57
2019-06-10T19:04:37.916Z,5.10
2019-06-10T19:07:05.442Z,4.67
2019-06-10T19:09:35.905Z,4.20
2019-06-10T19:12:03.001Z,7.87
2019-06-10T19:14:33.593Z,5.50
2019-06-10T19:17:02.879Z,3.23
2019-06-10T19:19:32.390Z,3.10
2019-06-10T19:22:08.217Z,2.73
2019-06-10T19:24:30.999Z,2.87
2019-06-10T19:27:02.894Z,2.70
2019-06-10T19:29:35.073Z,2.53
2019-06-10T19:31:58.908Z,2.57
2019-06-10T19:34:26.351Z,4.83
2019-06-10T19:36:54.198Z,2.87
2019-06-10T19:39:22.292Z,2.00
2019-06-10T19:41:50.016Z,2.23
2019-06-10T19:44:17.605Z,2.33
2019-06-10T19:46:45.394Z,2.13
2019-06-10T19:49:13.538Z,2.37
2019-06-10T19:51:44.078Z,3.00
2019-06-10T19:54:12.733Z,2.90
2019-06-10T19:56:41.689Z,5.90
2019-06-10T19:59:09.763Z,1.83
2019-06-10T20:01:38.663Z,1.93
2019-06-10T20:04:06.979Z,2.20
2019-06-10T20:06:35.708Z,3.43
2019-06-10T20:09:06.047Z,3.30
2019-06-10T20:11:34.241Z,5.13
2019-06-10T20:14:02.611Z,4.10
2019-06-10T20:16:30.683Z,2.50
2019-06-10T20:18:58.355Z,4.67
2019-06-10T20:21:28.359Z,3.93
2019-06-10T20:23:55.963Z,2.17
2019-06-10T20:26:23.797Z,4.30
2019-06-10T20:28:53.052Z,2.67
2019-06-10T20:31:22.148Z,6.13
2019-06-10T20:33:52.200Z,2.80
2019-06-10T20:36:25.664Z,2.83
2019-06-10T20:38:50.624Z,5.60
2019-06-10T20:41:18.994Z,3.03
2019-06-10T20:43:47.382Z,2.60
2019-06-10T20:46:14.987Z,4.37
2019-06-10T20:48:45.388Z,2.60
2019-06-10T20:51:15.638Z,5.47
2019-06-10T20:53:46.350Z,2.97
2019-06-10T20:56:14.550Z,4.13
2019-06-10T20:58:43.810Z,2.10
2019-06-10T21:01:12.934Z,3.17
2019-06-10T21:03:43.278Z,4.50
2019-06-10T21:06:13.041Z,2.90
2019-06-10T21:08:44.936Z,2.17
2019-06-10T21:11:12.891Z,2.60
2019-06-10T21:13:43.645Z,2.23
2019-06-10T21:16:12.502Z,2.30
2019-06-10T21:18:43.718Z,2.33
2019-06-10T21:21:10.462Z,2.07
2019-06-10T21:23:38.022Z,3.17
2019-06-10T21:26:05.916Z,4.10
2019-06-10T21:28:33.898Z,2.90
2019-06-10T21:31:02.892Z,2.70
2019-06-10T21:33:32.794Z,2.60
2019-06-10T21:36:00.154Z,4.80
2019-06-10T21:38:27.711Z,2.90
2019-06-10T21:40:55.189Z,3.87
2019-06-10T21:43:22.776Z,2.77
2019-06-10T21:45:56.170Z,2.80
2019-06-10T21:48:19.649Z,3.00
2019-06-10T21:50:48.631Z,2.80
2019-06-10T21:53:16.489Z,2.60
2019-06-10T21:55:45.177Z,2.80
2019-06-10T21:58:12.819Z,3.83
2019-06-10T22:00:55.616Z,3.00
2019-06-10T22:03:16.041Z,2.50
2019-06-10T22:05:45.862Z,2.63
2019-06-10T22:08:13.397Z,4.00
2019-06-10T22:10:42.446Z,3.00
2019-06-10T22:13:12.297Z,3.20
2019-06-10T22:15:42.255Z,2.63
2019-06-10T22:18:09.264Z,3.30
2019-06-10T22:20:37.291Z,3.63
2019-06-10T22:23:04.790Z,4.40
2019-06-10T22:25:46.751Z,3.20
2019-06-10T22:28:15.523Z,5.27
2019-06-10T22:30:43.473Z,4.10
2019-06-10T22:33:12.334Z,3.00
2019-06-10T22:35:42.105Z,2.37
2019-06-10T22:38:10.029Z,3.93
2019-06-10T22:40:38.221Z,3.10
2019-06-10T22:43:07.704Z,3.30
2019-06-10T22:45:35.554Z,3.03
2019-06-10T22:48:03.233Z,3.30
2019-06-10T22:50:32.243Z,3.07
2019-06-10T22:53:00.391Z,3.17
2019-06-10T22:55:27.871Z,2.60
2019-06-10T22:57:59.061Z,2.95
2019-06-10T23:00:25.155Z,3.50
2019-06-10T23:02:54.635Z,2.87
2019-06-10T23:05:23.175Z,2.63
2019-06-10T23:07:53.283Z,2.50
2019-06-10T23:10:22.895Z,5.83
2019-06-10T23:12:51.303Z,2.50
2019-06-10T23:15:19.832Z,2.43
2019-06-10T23:17:48.903Z,2.60
2019-06-10T23:20:16.629Z,3.33
2019-06-10T23:22:44.759Z,2.63
2019-06-10T23:25:12.782Z,3.33
2019-06-10T23:27:43.846Z,3.53
2019-06-10T23:30:11.757Z,2.53
2019-06-10T23:32:39.572Z,4.63
2019-06-10T23:35:07.383Z,5.23
2019-06-10T23:37:34.853Z,5.33
2019-06-10T23:40:04.236Z,3.40
2019-06-10T23:42:32.239Z,2.93
2019-06-10T23:45:04.487Z,2.83
2019-06-10T23:47:32.510Z,6.13
2019-06-10T23:49:59.730Z,4.03
2019-06-10T23:52:27.241Z,3.40
2019-06-10T23:54:55.836Z,3.97
2019-06-10T23:57:23.514Z,4.20
2019-06-10T23:59:52.467Z,7.60
